sensor_id;sensor_type;location;lat;lon;timestamp;pressure;altitude;pressure_sealevel;temperature;humidity
80699;BME280;70062;51.658;5.658;2023-11-21T00:02:05;100924.89;;;19.33;47.53
80699;BME280;70062;51.658;5.658;2023-11-21T00:04:31;100924.60;;;19.38;47.99
80699;BME280;70062;51.658;5.658;2023-11-21T00:06:56;100929.50;;;19.76;47.91
80699;BME280;70062;51.658;5.658;2023-11-21T00:09:22;100929.48;;;20.33;47.31
80699;BME280;70062;51.658;5.658;2023-11-21T00:11:48;100926.17;;;20.85;46.35
80699;BME280;70062;51.658;5.658;2023-11-21T00:14:13;100929.66;;;21.25;45.46
80699;BME280;70062;51.658;5.658;2023-11-21T00:16:41;100934.89;;;21.53;44.56
80699;BME280;70062;51.658;5.658;2023-11-21T00:19:06;100936.20;;;21.69;43.98
80699;BME280;70062;51.658;5.658;2023-11-21T00:21:32;100937.80;;;21.76;43.77
80699;BME280;70062;51.658;5.658;2023-11-21T00:23:58;100937.80;;;21.74;43.54
80699;BME280;70062;51.658;5.658;2023-11-21T00:26:23;100935.67;;;21.68;43.41
80699;BME280;70062;51.658;5.658;2023-11-21T00:28:49;100936.85;;;21.57;43.46
80699;BME280;70062;51.658;5.658;2023-11-21T00:31:15;100938.16;;;21.44;43.59
80699;BME280;70062;51.658;5.658;2023-11-21T00:33:41;100928.29;;;21.27;43.53
80699;BME280;70062;51.658;5.658;2023-11-21T00:36:06;100932.50;;;21.11;43.80
80699;BME280;70062;51.658;5.658;2023-11-21T00:38:35;100935.34;;;20.94;44.09
80699;BME280;70062;51.658;5.658;2023-11-21T00:41:06;100938.48;;;20.77;44.32
80699;BME280;70062;51.658;5.658;2023-11-21T00:43:37;100937.95;;;20.58;44.62
80699;BME280;70062;51.658;5.658;2023-11-21T00:46:06;100943.36;;;20.41;44.90
80699;BME280;70062;51.658;5.658;2023-11-21T00:48:34;100942.80;;;20.23;45.29
80699;BME280;70062;51.658;5.658;2023-11-21T00:50:59;100941.38;;;20.06;45.60
80699;BME280;70062;51.658;5.658;2023-11-21T00:53:25;100941.20;;;19.91;45.98
80699;BME280;70062;51.658;5.658;2023-11-21T00:55:50;100938.53;;;19.73;46.34
80699;BME280;70062;51.658;5.658;2023-11-21T00:58:22;100941.59;;;19.55;46.84
80699;BME280;70062;51.658;5.658;2023-11-21T01:00:48;100945.91;;;19.53;47.35
80699;BME280;70062;51.658;5.658;2023-11-21T01:03:13;100951.77;;;19.87;47.49
80699;BME280;70062;51.658;5.658;2023-11-21T01:05:38;100952.30;;;20.48;47.02
80699;BME280;70062;51.658;5.658;2023-11-21T01:08:04;100949.98;;;21.14;45.86
80699;BME280;70062;51.658;5.658;2023-11-21T01:13:46;100957.92;;;22.13;43.64
80699;BME280;70062;51.658;5.658;2023-11-21T01:16:12;100961.30;;;22.34;42.84
80699;BME280;70062;51.658;5.658;2023-11-21T01:18:41;100967.10;;;22.43;42.45
80699;BME280;70062;51.658;5.658;2023-11-21T01:21:06;100968.15;;;22.43;42.05
80699;BME280;70062;51.658;5.658;2023-11-21T01:23:32;100976.01;;;22.37;41.99
80699;BME280;70062;51.658;5.658;2023-11-21T01:25:58;100980.16;;;22.23;42.05
80699;BME280;70062;51.658;5.658;2023-11-21T01:28:23;100985.70;;;22.08;42.19
80699;BME280;70062;51.658;5.658;2023-11-21T01:30:49;100988.91;;;21.90;42.17
80699;BME280;70062;51.658;5.658;2023-11-21T01:33:16;100990.73;;;21.70;42.45
80699;BME280;70062;51.658;5.658;2023-11-21T01:35:44;100991.80;;;21.47;42.68
80699;BME280;70062;51.658;5.658;2023-11-21T01:38:13;100997.58;;;21.25;42.98
80699;BME280;70062;51.658;5.658;2023-11-21T01:40:39;100995.98;;;21.03;43.43
80699;BME280;70062;51.658;5.658;2023-11-21T01:43:04;101004.14;;;20.82;43.71
80699;BME280;70062;51.658;5.658;2023-11-21T01:45:30;101003.90;;;20.60;44.20
80699;BME280;70062;51.658;5.658;2023-11-21T01:47:58;101008.38;;;20.40;44.49
80699;BME280;70062;51.658;5.658;2023-11-21T01:50:24;101008.14;;;20.21;44.98
80699;BME280;70062;51.658;5.658;2023-11-21T01:52:50;101007.54;;;20.01;45.32
80699;BME280;70062;51.658;5.658;2023-11-21T01:55:17;101001.70;;;19.82;45.80
80699;BME280;70062;51.658;5.658;2023-11-21T01:57:46;100998.60;;;19.60;46.23
80699;BME280;70062;51.658;5.658;2023-11-21T02:00:13;100998.05;;;19.48;46.96
80699;BME280;70062;51.658;5.658;2023-11-21T02:02:46;100987.97;;;19.72;47.24
80699;BME280;70062;51.658;5.658;2023-11-21T02:05:13;100989.73;;;20.28;46.72
80699;BME280;70062;51.658;5.658;2023-11-21T02:07:40;100989.55;;;20.89;45.76
80699;BME280;70062;51.658;5.658;2023-11-21T02:10:06;100994.00;;;21.38;44.81
80699;BME280;70062;51.658;5.658;2023-11-21T02:12:33;100997.20;;;21.73;43.97
80699;BME280;70062;51.658;5.658;2023-11-21T02:14:59;101006.06;;;21.95;43.34
80699;BME280;70062;51.658;5.658;2023-11-21T02:17:24;101015.41;;;22.06;42.94
80699;BME280;70062;51.658;5.658;2023-11-21T02:19:50;101015.77;;;22.07;42.59
80699;BME280;70062;51.658;5.658;2023-11-21T02:22:18;101017.83;;;22.02;42.41
80699;BME280;70062;51.658;5.658;2023-11-21T02:24:46;101018.27;;;21.91;42.37
80699;BME280;70062;51.658;5.658;2023-11-21T02:27:13;101019.23;;;21.76;42.43
80699;BME280;70062;51.658;5.658;2023-11-21T02:29:38;101022.45;;;21.60;42.79
80699;BME280;70062;51.658;5.658;2023-11-21T02:32:03;101023.20;;;21.42;42.75
80699;BME280;70062;51.658;5.658;2023-11-21T02:34:29;101022.15;;;21.22;43.04
80699;BME280;70062;51.658;5.658;2023-11-21T02:36:54;101025.27;;;21.01;43.41
80699;BME280;70062;51.658;5.658;2023-11-21T02:39:20;101027.70;;;20.82;43.68
80699;BME280;70062;51.658;5.658;2023-11-21T02:41:47;101033.91;;;20.62;44.09
80699;BME280;70062;51.658;5.658;2023-11-21T02:44:13;101033.52;;;20.42;44.42
80699;BME280;70062;51.658;5.658;2023-11-21T02:46:38;101036.21;;;20.22;44.85
80699;BME280;70062;51.658;5.658;2023-11-21T02:49:05;101035.73;;;19.99;45.29
80699;BME280;70062;51.658;5.658;2023-11-21T02:51:35;101032.45;;;19.88;46.01
80699;BME280;70062;51.658;5.658;2023-11-21T02:54:01;101035.32;;;20.20;46.18
80699;BME280;70062;51.658;5.658;2023-11-21T02:56:28;101030.34;;;20.85;45.74
80699;BME280;70062;51.658;5.658;2023-11-21T02:58:57;101030.52;;;21.66;44.46
80699;BME280;70062;51.658;5.658;2023-11-21T03:01:22;101033.38;;;22.36;43.06
80699;BME280;70062;51.658;5.658;2023-11-21T03:03:49;101033.91;;;22.89;42.08
80699;BME280;70062;51.658;5.658;2023-11-21T03:06:17;101031.50;;;23.23;41.24
80699;BME280;70062;51.658;5.658;2023-11-21T03:08:43;101028.16;;;23.41;40.55
80699;BME280;70062;51.658;5.658;2023-11-21T03:11:08;101027.29;;;23.47;39.97
80699;BME280;70062;51.658;5.658;2023-11-21T03:13:34;101030.09;;;23.46;39.75
80699;BME280;70062;51.658;5.658;2023-11-21T03:15:59;101030.27;;;23.36;39.73
80699;BME280;70062;51.658;5.658;2023-11-21T03:18:24;101033.77;;;23.21;39.71
80699;BME280;70062;51.658;5.658;2023-11-21T03:20:52;101035.52;;;23.03;39.87
80699;BME280;70062;51.658;5.658;2023-11-21T03:23:17;101044.92;;;22.81;39.84
80699;BME280;70062;51.658;5.658;2023-11-21T03:25:43;101048.85;;;22.57;40.05
80699;BME280;70062;51.658;5.658;2023-11-21T03:28:08;101054.17;;;22.31;40.50
80699;BME280;70062;51.658;5.658;2023-11-21T03:30:34;101052.11;;;22.07;40.97
80699;BME280;70062;51.658;5.658;2023-11-21T03:32:59;101052.30;;;21.82;41.32
80699;BME280;70062;51.658;5.658;2023-11-21T03:35:24;101052.48;;;21.58;41.57
80699;BME280;70062;51.658;5.658;2023-11-21T03:37:50;101050.38;;;21.32;42.14
80699;BME280;70062;51.658;5.658;2023-11-21T03:40:15;101053.81;;;21.10;42.57
80699;BME280;70062;51.658;5.658;2023-11-21T03:42:40;101050.60;;;20.86;42.94
80699;BME280;70062;51.658;5.658;2023-11-21T03:45:07;101060.98;;;20.65;43.44
80699;BME280;70062;51.658;5.658;2023-11-21T03:47:33;101068.23;;;20.43;43.77
80699;BME280;70062;51.658;5.658;2023-11-21T03:49:59;101069.69;;;20.23;44.26
80699;BME280;70062;51.658;5.658;2023-11-21T03:52:24;101065.23;;;20.02;44.66
80699;BME280;70062;51.658;5.658;2023-11-21T03:54:50;101061.83;;;19.84;45.12
80699;BME280;70062;51.658;5.658;2023-11-21T03:57:15;101061.90;;;19.66;45.41
80699;BME280;70062;51.658;5.658;2023-11-21T03:59:42;101065.02;;;19.45;46.01
80699;BME280;70062;51.658;5.658;2023-11-21T04:02:08;101065.87;;;19.33;46.65
80699;BME280;70062;51.658;5.658;2023-11-21T04:04:34;101063.44;;;19.53;47.01
80699;BME280;70062;51.658;5.658;2023-11-21T04:07:00;101063.92;;;20.09;46.59
80699;BME280;70062;51.658;5.658;2023-11-21T04:09:25;101066.14;;;20.72;45.66
80699;BME280;70062;51.658;5.658;2023-11-21T04:11:51;101066.88;;;21.24;44.63
80699;BME280;70062;51.658;5.658;2023-11-21T04:14:17;101071.20;;;21.62;43.79
80699;BME280;70062;51.658;5.658;2023-11-21T04:16:42;101075.57;;;21.85;43.02
80699;BME280;70062;51.658;5.658;2023-11-21T04:19:08;101081.94;;;21.97;42.64
80699;BME280;70062;51.658;5.658;2023-11-21T04:21:42;101089.82;;;22.00;42.30
80699;BME280;70062;51.658;5.658;2023-11-21T04:24:08;101092.77;;;21.95;42.07
80699;BME280;70062;51.658;5.658;2023-11-21T04:26:34;101094.96;;;21.84;42.06
80699;BME280;70062;51.658;5.658;2023-11-21T04:28:59;101096.95;;;21.71;42.30
80699;BME280;70062;51.658;5.658;2023-11-21T04:31:24;101098.23;;;21.54;42.15
80699;BME280;70062;51.658;5.658;2023-11-21T04:33:50;101104.20;;;21.36;42.68
80699;BME280;70062;51.658;5.658;2023-11-21T04:36:15;101108.87;;;21.17;42.88
80699;BME280;70062;51.658;5.658;2023-11-21T04:38:40;101110.59;;;20.98;43.20
80699;BME280;70062;51.658;5.658;2023-11-21T04:41:06;101116.83;;;20.79;43.44
80699;BME280;70062;51.658;5.658;2023-11-21T04:43:31;101116.23;;;20.61;43.83
80699;BME280;70062;51.658;5.658;2023-11-21T04:45:57;101117.73;;;20.42;44.11
80699;BME280;70062;51.658;5.658;2023-11-21T04:48:22;101118.32;;;20.22;44.43
80699;BME280;70062;51.658;5.658;2023-11-21T04:50:47;101120.07;;;19.99;44.85
80699;BME280;70062;51.658;5.658;2023-11-21T04:53:13;101128.23;;;19.85;45.51
80699;BME280;70062;51.658;5.658;2023-11-21T04:55:40;101130.26;;;20.04;45.95
80699;BME280;70062;51.658;5.658;2023-11-21T04:58:06;101136.11;;;20.60;45.60
80699;BME280;70062;51.658;5.658;2023-11-21T05:00:31;101138.66;;;21.28;44.56
80699;BME280;70062;51.658;5.658;2023-11-21T05:02:57;101137.09;;;21.86;43.55
80699;BME280;70062;51.658;5.658;2023-11-21T05:05:22;101137.05;;;22.26;42.51
80699;BME280;70062;51.658;5.658;2023-11-21T05:07:47;101140.86;;;22.52;41.74
80699;BME280;70062;51.658;5.658;2023-11-21T05:10:14;101147.77;;;22.66;41.25
80699;BME280;70062;51.658;5.658;2023-11-21T05:12:40;101153.04;;;22.69;40.96
80699;BME280;70062;51.658;5.658;2023-11-21T05:15:07;101148.27;;;22.63;40.76
80699;BME280;70062;51.658;5.658;2023-11-21T05:17:37;101149.95;;;22.53;40.53
80699;BME280;70062;51.658;5.658;2023-11-21T05:20:04;101151.45;;;22.37;40.83
80699;BME280;70062;51.658;5.658;2023-11-21T05:22:34;101146.44;;;22.18;40.98
80699;BME280;70062;51.658;5.658;2023-11-21T05:24:59;101152.56;;;21.98;41.21
80699;BME280;70062;51.658;5.658;2023-11-21T05:27:25;101159.74;;;21.77;41.44
80699;BME280;70062;51.658;5.658;2023-11-21T05:29:50;101158.15;;;21.54;41.86
80699;BME280;70062;51.658;5.658;2023-11-21T05:32:15;101166.31;;;21.31;42.08
80699;BME280;70062;51.658;5.658;2023-11-21T05:34:42;101166.38;;;21.08;42.45
80699;BME280;70062;51.658;5.658;2023-11-21T05:37:08;101170.65;;;20.86;42.95
80699;BME280;70062;51.658;5.658;2023-11-21T05:39:33;101171.75;;;20.65;43.30
80699;BME280;70062;51.658;5.658;2023-11-21T05:41:58;101174.44;;;20.44;43.65
80699;BME280;70062;51.658;5.658;2023-11-21T05:44:25;101178.81;;;20.23;44.10
80699;BME280;70062;51.658;5.658;2023-11-21T05:46:50;101184.56;;;20.00;44.60
80699;BME280;70062;51.658;5.658;2023-11-21T05:49:16;101186.19;;;19.82;45.19
80699;BME280;70062;51.658;5.658;2023-11-21T05:51:41;101186.41;;;19.96;45.58
80699;BME280;70062;51.658;5.658;2023-11-21T05:54:07;101184.06;;;20.47;45.49
80699;BME280;70062;51.658;5.658;2023-11-21T05:56:33;101189.04;;;21.21;44.62
80699;BME280;70062;51.658;5.658;2023-11-21T05:58:59;101189.39;;;21.90;43.34
80699;BME280;70062;51.658;5.658;2023-11-21T06:01:25;101193.81;;;22.43;42.20
80699;BME280;70062;51.658;5.658;2023-11-21T06:03:54;101199.81;;;22.78;41.35
80699;BME280;70062;51.658;5.658;2023-11-21T06:06:21;101204.48;;;23.01;40.74
80699;BME280;70062;51.658;5.658;2023-11-21T06:08:48;101207.14;;;23.09;40.26
80699;BME280;70062;51.658;5.658;2023-11-21T06:11:14;101210.98;;;23.09;40.01
80699;BME280;70062;51.658;5.658;2023-11-21T06:13:39;101207.45;;;22.99;39.73
80699;BME280;70062;51.658;5.658;2023-11-21T06:16:05;101207.92;;;22.86;39.88
80699;BME280;70062;51.658;5.658;2023-11-21T06:18:30;101207.28;;;22.67;39.79
80699;BME280;70062;51.658;5.658;2023-11-21T06:20:56;101208.36;;;22.47;40.00
80699;BME280;70062;51.658;5.658;2023-11-21T06:23:21;101218.18;;;22.25;40.32
80699;BME280;70062;51.658;5.658;2023-11-21T06:25:46;101222.55;;;22.02;40.74
80699;BME280;70062;51.658;5.658;2023-11-21T06:28:12;101225.10;;;21.77;41.12
80699;BME280;70062;51.658;5.658;2023-11-21T06:30:37;101229.77;;;21.55;41.33
80699;BME280;70062;51.658;5.658;2023-11-21T06:33:03;101230.03;;;21.30;41.70
80699;BME280;70062;51.658;5.658;2023-11-21T06:35:28;101235.67;;;21.08;42.04
80699;BME280;70062;51.658;5.658;2023-11-21T06:37:55;101236.25;;;20.85;42.56
80699;BME280;70062;51.658;5.658;2023-11-21T06:40:21;101236.45;;;20.63;42.87
80699;BME280;70062;51.658;5.658;2023-11-21T06:42:47;101241.18;;;20.42;43.51
80699;BME280;70062;51.658;5.658;2023-11-21T06:45:12;101244.15;;;20.21;43.82
80699;BME280;70062;51.658;5.658;2023-11-21T06:47:38;101245.39;;;20.01;44.28
80699;BME280;70062;51.658;5.658;2023-11-21T06:50:05;101246.37;;;19.77;44.78
80699;BME280;70062;51.658;5.658;2023-11-21T06:52:31;101246.12;;;19.63;45.44
80699;BME280;70062;51.658;5.658;2023-11-21T06:54:57;101252.40;;;19.82;45.86
80699;BME280;70062;51.658;5.658;2023-11-21T06:57:23;101246.48;;;20.35;45.55
80699;BME280;70062;51.658;5.658;2023-11-21T06:59:49;101249.60;;;21.04;44.42
80699;BME280;70062;51.658;5.658;2023-11-21T07:02:17;101252.92;;;21.65;43.69
80699;BME280;70062;51.658;5.658;2023-11-21T07:04:50;101255.27;;;22.08;42.53
80699;BME280;70062;51.658;5.658;2023-11-21T07:07:18;101255.16;;;22.36;41.63
80699;BME280;70062;51.658;5.658;2023-11-21T07:09:43;101257.37;;;22.52;41.18
80699;BME280;70062;51.658;5.658;2023-11-21T07:12:09;101262.30;;;22.54;40.92
80699;BME280;70062;51.658;5.658;2023-11-21T07:14:36;101268.21;;;22.52;40.75
80699;BME280;70062;51.658;5.658;2023-11-21T07:17:04;101272.70;;;22.42;40.56
80699;BME280;70062;51.658;5.658;2023-11-21T07:19:30;101278.54;;;22.29;40.77
80699;BME280;70062;51.658;5.658;2023-11-21T07:21:56;101282.25;;;22.11;40.93
80699;BME280;70062;51.658;5.658;2023-11-21T07:24:21;101290.42;;;21.92;41.19
80699;BME280;70062;51.658;5.658;2023-11-21T07:26:48;101295.47;;;21.71;41.57
80699;BME280;70062;51.658;5.658;2023-11-21T07:29:14;101300.48;;;21.51;41.85
80699;BME280;70062;51.658;5.658;2023-11-21T07:31:39;101301.42;;;21.28;42.22
80699;BME280;70062;51.658;5.658;2023-11-21T07:34:06;101303.75;;;21.07;42.73
80699;BME280;70062;51.658;5.658;2023-11-21T07:36:32;101305.36;;;20.86;43.09
80699;BME280;70062;51.658;5.658;2023-11-21T07:38:58;101315.99;;;20.63;43.61
80699;BME280;70062;51.658;5.658;2023-11-21T07:41:23;101318.40;;;20.50;44.28
80699;BME280;70062;51.658;5.658;2023-11-21T07:43:49;101320.16;;;20.84;44.47
80699;BME280;70062;51.658;5.658;2023-11-21T07:46:14;101321.97;;;21.52;44.03
80699;BME280;70062;51.658;5.658;2023-11-21T07:48:41;101324.59;;;22.34;42.83
80699;BME280;70062;51.658;5.658;2023-11-21T07:51:11;101327.98;;;23.11;41.51
80699;BME280;70062;51.658;5.658;2023-11-21T07:53:38;101331.02;;;23.64;40.33
80699;BME280;70062;51.658;5.658;2023-11-21T07:56:05;101329.88;;;23.98;39.50
80699;BME280;70062;51.658;5.658;2023-11-21T07:58:31;101334.99;;;24.17;38.86
80699;BME280;70062;51.658;5.658;2023-11-21T08:01:01;101336.05;;;24.24;38.52
80699;BME280;70062;51.658;5.658;2023-11-21T08:03:27;101336.05;;;24.19;38.22
80699;BME280;70062;51.658;5.658;2023-11-21T08:05:52;101341.83;;;24.09;38.00
80699;BME280;70062;51.658;5.658;2023-11-21T08:08:19;101338.29;;;23.90;38.13
80699;BME280;70062;51.658;5.658;2023-11-21T08:10:48;101340.86;;;23.71;38.24
80699;BME280;70062;51.658;5.658;2023-11-21T08:13:26;101341.80;;;23.45;38.57
80699;BME280;70062;51.658;5.658;2023-11-21T08:15:56;101345.02;;;23.21;38.81
80699;BME280;70062;51.658;5.658;2023-11-21T08:18:22;101353.43;;;22.93;39.07
80699;BME280;70062;51.658;5.658;2023-11-21T08:20:48;101343.20;;;22.59;39.48
80699;BME280;70062;51.658;5.658;2023-11-21T08:23:21;101360.31;;;22.39;39.89
80699;BME280;70062;51.658;5.658;2023-11-21T08:25:54;101367.40;;;22.12;40.25
80699;BME280;70062;51.658;5.658;2023-11-21T08:28:21;101368.69;;;21.87;40.87
80699;BME280;70062;51.658;5.658;2023-11-21T08:30:51;101369.56;;;21.58;41.23
80699;BME280;70062;51.658;5.658;2023-11-21T08:33:17;101374.67;;;21.33;41.75
80699;BME280;70062;51.658;5.658;2023-11-21T08:35:43;101378.75;;;21.03;42.16
80699;BME280;70062;51.658;5.658;2023-11-21T08:38:08;101386.20;;;20.89;42.97
80699;BME280;70062;51.658;5.658;2023-11-21T08:40:35;101387.20;;;21.08;43.31
80699;BME280;70062;51.658;5.658;2023-11-21T08:43:00;101389.98;;;21.56;43.07
80699;BME280;70062;51.658;5.658;2023-11-21T08:45:26;101396.02;;;22.07;42.34
80699;BME280;70062;51.658;5.658;2023-11-21T08:47:51;101398.16;;;22.45;41.45
80699;BME280;70062;51.658;5.658;2023-11-21T08:50:17;101405.06;;;22.71;41.04
80699;BME280;70062;51.658;5.658;2023-11-21T08:52:44;101409.04;;;22.83;40.61
80699;BME280;70062;51.658;5.658;2023-11-21T08:55:11;101409.94;;;22.86;40.46
80699;BME280;70062;51.658;5.658;2023-11-21T08:57:40;101410.58;;;22.80;40.18
80699;BME280;70062;51.658;5.658;2023-11-21T09:00:06;101406.63;;;22.70;40.05
80699;BME280;70062;51.658;5.658;2023-11-21T09:02:43;101410.14;;;22.54;40.12
80699;BME280;70062;51.658;5.658;2023-11-21T09:05:13;101411.88;;;22.35;40.39
80699;BME280;70062;51.658;5.658;2023-11-21T09:07:40;101414.45;;;22.12;40.85
80699;BME280;70062;51.658;5.658;2023-11-21T09:10:09;101412.92;;;21.89;41.15
80699;BME280;70062;51.658;5.658;2023-11-21T09:12:40;101412.65;;;21.66;41.47
80699;BME280;70062;51.658;5.658;2023-11-21T09:15:07;101419.33;;;21.43;41.75
80699;BME280;70062;51.658;5.658;2023-11-21T09:17:33;101422.73;;;21.14;42.29
80699;BME280;70062;51.658;5.658;2023-11-21T09:20:03;101428.63;;;20.90;43.04
80699;BME280;70062;51.658;5.658;2023-11-21T09:22:31;101429.44;;;20.96;43.44
80699;BME280;70062;51.658;5.658;2023-11-21T09:24:57;101433.23;;;21.39;43.41
80699;BME280;70062;51.658;5.658;2023-11-21T09:27:23;101435.76;;;21.97;42.45
80699;BME280;70062;51.658;5.658;2023-11-21T09:29:50;101437.20;;;22.48;41.74
80699;BME280;70062;51.658;5.658;2023-11-21T09:32:16;101440.39;;;22.86;41.05
80699;BME280;70062;51.658;5.658;2023-11-21T09:34:44;101443.38;;;23.09;40.42
80699;BME280;70062;51.658;5.658;2023-11-21T09:37:09;101442.05;;;23.19;40.09
80699;BME280;70062;51.658;5.658;2023-11-21T09:39:34;101447.30;;;23.19;39.80
80699;BME280;70062;51.658;5.658;2023-11-21T09:42:17;101450.57;;;23.11;39.63
80699;BME280;70062;51.658;5.658;2023-11-21T09:44:58;101456.23;;;22.96;39.65
80699;BME280;70062;51.658;5.658;2023-11-21T09:47:26;101452.31;;;22.71;39.83
80699;BME280;70062;51.658;5.658;2023-11-21T09:49:54;101465.28;;;22.55;40.07
80699;BME280;70062;51.658;5.658;2023-11-21T09:52:26;101471.50;;;22.33;40.32
80699;BME280;70062;51.658;5.658;2023-11-21T09:54:52;101475.95;;;22.09;40.69
80699;BME280;70062;51.658;5.658;2023-11-21T09:57:20;101483.33;;;21.86;41.08
80699;BME280;70062;51.658;5.658;2023-11-21T09:59:52;101488.77;;;21.62;41.33
80699;BME280;70062;51.658;5.658;2023-11-21T10:02:28;101491.81;;;21.30;41.84
80699;BME280;70062;51.658;5.658;2023-11-21T10:04:58;101496.60;;;21.05;42.43
80699;BME280;70062;51.658;5.658;2023-11-21T10:07:26;101501.54;;;20.97;43.10
80699;BME280;70062;51.658;5.658;2023-11-21T10:09:53;101500.09;;;21.26;43.28
80699;BME280;70062;51.658;5.658;2023-11-21T10:12:18;101498.70;;;21.84;42.97
80699;BME280;70062;51.658;5.658;2023-11-21T10:14:48;101494.60;;;22.49;42.05
80699;BME280;70062;51.658;5.658;2023-11-21T10:17:14;101491.98;;;23.00;41.12
80699;BME280;70062;51.658;5.658;2023-11-21T10:19:47;101487.53;;;23.36;40.52
80699;BME280;70062;51.658;5.658;2023-11-21T10:22:32;101496.48;;;23.63;39.89
80699;BME280;70062;51.658;5.658;2023-11-21T10:24:59;101508.29;;;23.74;39.59
80699;BME280;70062;51.658;5.658;2023-11-21T10:27:26;101519.00;;;23.75;39.50
80699;BME280;70062;51.658;5.658;2023-11-21T10:29:53;101519.31;;;23.69;39.43
80699;BME280;70062;51.658;5.658;2023-11-21T10:32:18;101520.81;;;23.58;39.54
80699;BME280;70062;51.658;5.658;2023-11-21T10:34:55;101525.06;;;23.42;39.86
80699;BME280;70062;51.658;5.658;2023-11-21T10:37:21;101525.43;;;23.21;40.45
80699;BME280;70062;51.658;5.658;2023-11-21T10:40:44;101524.88;;;22.97;40.83
80699;BME280;70062;51.658;5.658;2023-11-21T10:43:17;101519.48;;;22.67;41.23
80699;BME280;70062;51.658;5.658;2023-11-21T10:45:47;101522.35;;;22.43;41.60
80699;BME280;70062;51.658;5.658;2023-11-21T10:48:14;101507.83;;;22.13;41.95
80699;BME280;70062;51.658;5.658;2023-11-21T10:50:46;101521.36;;;21.93;42.51
80699;BME280;70062;51.658;5.658;2023-11-21T10:53:15;101539.98;;;21.75;42.85
80699;BME280;70062;51.658;5.658;2023-11-21T10:55:45;101536.65;;;21.50;43.27
80699;BME280;70062;51.658;5.658;2023-11-21T10:58:11;101534.73;;;21.29;43.60
80699;BME280;70062;51.658;5.658;2023-11-21T11:00:39;101533.29;;;21.06;44.04
80699;BME280;70062;51.658;5.658;2023-11-21T11:03:06;101531.87;;;20.85;44.49
80699;BME280;70062;51.658;5.658;2023-11-21T11:05:39;101535.46;;;20.64;44.94
80699;BME280;70062;51.658;5.658;2023-11-21T11:08:08;101521.80;;;20.34;45.30
80699;BME280;70062;51.658;5.658;2023-11-21T11:10:35;101541.23;;;20.22;45.86
80699;BME280;70062;51.658;5.658;2023-11-21T11:13:02;101539.52;;;20.16;46.41
80699;BME280;70062;51.658;5.658;2023-11-21T11:15:28;101543.15;;;20.47;46.70
80699;BME280;70062;51.658;5.658;2023-11-21T11:17:54;101550.23;;;21.06;46.14
80699;BME280;70062;51.658;5.658;2023-11-21T11:20:25;101551.95;;;21.81;45.02
80699;BME280;70062;51.658;5.658;2023-11-21T11:28:18;101557.05;;;23.31;41.55
80699;BME280;70062;51.658;5.658;2023-11-21T11:33:50;101547.21;;;23.53;40.49
80699;BME280;70062;51.658;5.658;2023-11-21T11:36:44;101553.13;;;23.46;40.38
80699;BME280;70062;51.658;5.658;2023-11-21T11:39:30;101559.67;;;23.31;40.33
80699;BME280;70062;51.658;5.658;2023-11-21T11:41:58;101563.00;;;23.11;40.65
80699;BME280;70062;51.658;5.658;2023-11-21T11:47:26;101579.67;;;22.65;41.09
80699;BME280;70062;51.658;5.658;2023-11-21T11:52:42;101590.92;;;22.16;41.85
80699;BME280;70062;51.658;5.658;2023-11-21T11:55:12;101594.91;;;21.90;42.33
80699;BME280;70062;51.658;5.658;2023-11-21T11:57:47;101608.38;;;21.67;42.76
80699;BME280;70062;51.658;5.658;2023-11-21T12:02:49;101616.65;;;21.20;43.55
80699;BME280;70062;51.658;5.658;2023-11-21T12:05:17;101616.58;;;20.98;44.01
80699;BME280;70062;51.658;5.658;2023-11-21T12:07:51;101619.31;;;20.78;44.34
80699;BME280;70062;51.658;5.658;2023-11-21T12:10:46;101622.69;;;20.55;44.79
80699;BME280;70062;51.658;5.658;2023-11-21T12:13:19;101627.16;;;20.30;45.55
80699;BME280;70062;51.658;5.658;2023-11-21T12:15:52;101629.10;;;20.22;46.21
80699;BME280;70062;51.658;5.658;2023-11-21T12:18:23;101629.23;;;20.52;46.35
80699;BME280;70062;51.658;5.658;2023-11-21T12:20:51;101627.27;;;21.01;45.79
80699;BME280;70062;51.658;5.658;2023-11-21T12:23:17;101629.66;;;21.44;45.14
80699;BME280;70062;51.658;5.658;2023-11-21T12:25:43;101627.37;;;21.75;44.47
80699;BME280;70062;51.658;5.658;2023-11-21T12:28:08;101628.41;;;21.97;44.03
80699;BME280;70062;51.658;5.658;2023-11-21T12:30:38;101622.58;;;22.03;43.63
80699;BME280;70062;51.658;5.658;2023-11-21T12:33:11;101638.65;;;22.15;43.38
80699;BME280;70062;51.658;5.658;2023-11-21T12:35:49;101641.58;;;22.11;43.17
80699;BME280;70062;51.658;5.658;2023-11-21T12:38:18;101649.20;;;22.06;43.40
80699;BME280;70062;51.658;5.658;2023-11-21T12:40:52;101652.48;;;21.95;43.60
80699;BME280;70062;51.658;5.658;2023-11-21T12:43:25;101652.42;;;21.79;44.01
80699;BME280;70062;51.658;5.658;2023-11-21T12:46:17;101657.63;;;21.66;44.24
80699;BME280;70062;51.658;5.658;2023-11-21T12:48:54;101654.66;;;21.46;44.54
80699;BME280;70062;51.658;5.658;2023-11-21T12:51:26;101654.02;;;21.29;44.88
80699;BME280;70062;51.658;5.658;2023-11-21T12:53:58;101646.80;;;21.08;45.29
80699;BME280;70062;51.658;5.658;2023-11-21T12:56:39;101649.65;;;20.93;45.71
80699;BME280;70062;51.658;5.658;2023-11-21T12:59:12;101652.79;;;20.76;46.25
80699;BME280;70062;51.658;5.658;2023-11-21T13:01:43;101652.77;;;20.59;46.67
80699;BME280;70062;51.658;5.658;2023-11-21T13:04:08;101654.18;;;20.43;46.98
80699;BME280;70062;51.658;5.658;2023-11-21T13:06:36;101657.11;;;20.28;47.48
80699;BME280;70062;51.658;5.658;2023-11-21T13:09:07;101660.36;;;20.09;48.02
80699;BME280;70062;51.658;5.658;2023-11-21T13:11:38;101662.52;;;19.97;48.61
80699;BME280;70062;51.658;5.658;2023-11-21T13:14:12;101667.77;;;20.21;48.96